sensor_id;sensor_type;location;lat;lon;timestamp;pressure;altitude;pressure_sealevel;temperature;humidity
5753;BME280;2901;42.140;24.760;2022-11-20T00:01:45;98885.06;;;13.81;100.00
5753;BME280;2901;42.140;24.760;2022-11-20T00:04:10;98853.34;;;13.69;100.00
5753;BME280;2901;42.140;24.760;2022-11-20T00:06:37;98861.75;;;13.77;100.00
5753;BME280;2901;42.140;24.760;2022-11-20T00:09:02;98867.97;;;13.73;100.00
5753;BME280;2901;42.140;24.760;2022-11-20T00:11:29;98870.56;;;13.73;100.00
5753;BME280;2901;42.140;24.760;2022-11-20T00:13:56;98856.03;;;13.66;100.00
5753;BME280;2901;42.140;24.760;2022-11-20T00:16:24;98868.00;;;13.71;100.00
5753;BME280;2901;42.140;24.760;2022-11-20T00:18:50;98876.53;;;13.76;100.00
5753;BME280;2901;42.140;24.760;2022-11-20T00:21:25;98867.22;;;13.68;100.00
5753;BME280;2901;42.140;24.760;2022-11-20T00:23:53;98857.72;;;13.67;100.00
5753;BME280;2901;42.140;24.760;2022-11-20T00:26:20;98861.41;;;13.60;100.00
5753;BME280;2901;42.140;24.760;2022-11-20T00:28:57;98851.00;;;13.60;100.00
5753;BME280;2901;42.140;24.760;2022-11-20T00:31:23;98852.66;;;13.62;100.00
5753;BME280;2901;42.140;24.760;2022-11-20T00:33:49;98867.22;;;13.68;100.00
5753;BME280;2901;42.140;24.760;2022-11-20T00:36:18;98868.66;;;13.78;100.00
5753;BME280;2901;42.140;24.760;2022-11-20T00:38:43;98868.66;;;13.78;100.00
5753;BME280;2901;42.140;24.760;2022-11-20T00:41:12;98868.59;;;13.81;100.00
5753;BME280;2901;42.140;24.760;2022-11-20T00:43:38;98853.91;;;13.78;100.00
5753;BME280;2901;42.140;24.760;2022-11-20T00:46:18;98856.66;;;13.74;100.00
5753;BME280;2901;42.140;24.760;2022-11-20T00:48:44;98844.56;;;13.73;100.00
5753;BME280;2901;42.140;24.760;2022-11-20T00:51:15;98867.06;;;13.74;100.00
5753;BME280;2901;42.140;24.760;2022-11-20T00:53:41;98864.59;;;13.69;100.00
5753;BME280;2901;42.140;24.760;2022-11-20T00:56:09;98867.03;;;13.75;100.00
5753;BME280;2901;42.140;24.760;2022-11-20T00:58:38;98864.34;;;13.77;100.00
5753;BME280;2901;42.140;24.760;2022-11-20T01:01:08;98866.06;;;13.78;100.00
5753;BME280;2901;42.140;24.760;2022-11-20T01:03:36;98878.19;;;13.79;100.00
5753;BME280;2901;42.140;24.760;2022-11-20T01:06:03;98862.72;;;13.74;100.00
5753;BME280;2901;42.140;24.760;2022-11-20T01:08:33;98861.59;;;13.83;100.00
5753;BME280;2901;42.140;24.760;2022-11-20T01:11:22;98872.72;;;13.88;100.00
5753;BME280;2901;42.140;24.760;2022-11-20T01:13:47;98865.03;;;13.83;100.00
5753;BME280;2901;42.140;24.760;2022-11-20T01:16:17;98864.09;;;13.86;100.00
5753;BME280;2901;42.140;24.760;2022-11-20T01:18:45;98853.81;;;13.81;100.00
5753;BME280;2901;42.140;24.760;2022-11-20T01:21:14;98854.81;;;13.77;100.00
5753;BME280;2901;42.140;24.760;2022-11-20T01:23:41;98851.09;;;13.86;100.00
5753;BME280;2901;42.140;24.760;2022-11-20T01:26:11;98845.03;;;13.85;100.00
5753;BME280;2901;42.140;24.760;2022-11-20T01:28:38;98847.47;;;13.90;100.00
5753;BME280;2901;42.140;24.760;2022-11-20T01:33:42;98827.84;;;13.80;100.00
5753;BME280;2901;42.140;24.760;2022-11-20T01:36:08;98822.88;;;13.72;100.00
5753;BME280;2901;42.140;24.760;2022-11-20T01:38:34;98823.75;;;13.73;100.00
5753;BME280;2901;42.140;24.760;2022-11-20T01:41:00;98824.72;;;13.69;100.00
5753;BME280;2901;42.140;24.760;2022-11-20T01:43:26;98830.78;;;13.69;100.00
5753;BME280;2901;42.140;24.760;2022-11-20T01:48:46;98814.84;;;13.50;100.00
5753;BME280;2901;42.140;24.760;2022-11-20T01:51:39;98817.28;;;13.57;100.00
5753;BME280;2901;42.140;24.760;2022-11-20T01:54:12;98812.09;;;13.57;100.00
5753;BME280;2901;42.140;24.760;2022-11-20T01:56:41;98809.19;;;13.66;100.00
5753;BME280;2901;42.140;24.760;2022-11-20T01:59:10;98809.81;;;13.74;100.00
5753;BME280;2901;42.140;24.760;2022-11-20T02:01:38;98799.41;;;13.74;100.00
5753;BME280;2901;42.140;24.760;2022-11-20T02:04:05;98803.59;;;13.79;100.00
5753;BME280;2901;42.140;24.760;2022-11-20T02:06:40;98800.13;;;13.79;100.00
5753;BME280;2901;42.140;24.760;2022-11-20T02:09:07;98791.50;;;13.77;100.00
5753;BME280;2901;42.140;24.760;2022-11-20T02:11:32;98789.72;;;13.79;100.00
5753;BME280;2901;42.140;24.760;2022-11-20T02:13:58;98799.88;;;13.86;100.00
5753;BME280;2901;42.140;24.760;2022-11-20T02:16:28;98801.56;;;13.89;100.00
5753;BME280;2901;42.140;24.760;2022-11-20T02:18:55;98789.25;;;13.94;100.00
5753;BME280;2901;42.140;24.760;2022-11-20T02:21:40;98787.63;;;13.90;100.00
5753;BME280;2901;42.140;24.760;2022-11-20T02:24:16;98793.59;;;13.93;100.00
5753;BME280;2901;42.140;24.760;2022-11-20T02:26:48;98789.97;;;13.99;100.00
5753;BME280;2901;42.140;24.760;2022-11-20T02:29:17;98777.75;;;13.99;100.00
5753;BME280;2901;42.140;24.760;2022-11-20T02:31:44;98771.00;;;13.94;100.00
5753;BME280;2901;42.140;24.760;2022-11-20T02:34:10;98778.94;;;13.91;100.00
5753;BME280;2901;42.140;24.760;2022-11-20T02:36:36;98784.56;;;13.77;100.00
5753;BME280;2901;42.140;24.760;2022-11-20T02:39:04;98761.19;;;13.76;100.00
5753;BME280;2901;42.140;24.760;2022-11-20T02:41:36;98763.13;;;13.69;100.00
5753;BME280;2901;42.140;24.760;2022-11-20T02:44:03;98766.50;;;13.73;100.00
5753;BME280;2901;42.140;24.760;2022-11-20T02:46:29;98766.31;;;13.79;100.00
5753;BME280;2901;42.140;24.760;2022-11-20T02:48:55;98768.91;;;13.79;100.00
5753;BME280;2901;42.140;24.760;2022-11-20T02:51:20;98763.69;;;13.79;100.00
5753;BME280;2901;42.140;24.760;2022-11-20T02:53:46;98778.31;;;13.83;100.00
5753;BME280;2901;42.140;24.760;2022-11-20T02:56:11;98788.38;;;13.93;100.00
5753;BME280;2901;42.140;24.760;2022-11-20T02:58:36;98775.56;;;13.87;100.00
5753;BME280;2901;42.140;24.760;2022-11-20T03:01:02;98767.56;;;13.93;100.00
5753;BME280;2901;42.140;24.760;2022-11-20T03:03:27;98769.31;;;13.93;100.00
5753;BME280;2901;42.140;24.760;2022-11-20T03:05:53;98766.09;;;13.85;100.00
5753;BME280;2901;42.140;24.760;2022-11-20T03:08:18;98766.81;;;13.90;100.00
5753;BME280;2901;42.140;24.760;2022-11-20T03:10:43;98751.25;;;13.88;100.00
5753;BME280;2901;42.140;24.760;2022-11-20T03:13:09;98780.75;;;13.87;100.00
5753;BME280;2901;42.140;24.760;2022-11-20T03:15:36;98774.59;;;13.90;100.00
5753;BME280;2901;42.140;24.760;2022-11-20T03:18:02;98774.22;;;13.76;100.00
5753;BME280;2901;42.140;24.760;2022-11-20T03:20:28;98787.03;;;13.82;100.00
5753;BME280;2901;42.140;24.760;2022-11-20T03:22:54;98762.78;;;13.80;100.00
5753;BME280;2901;42.140;24.760;2022-11-20T03:25:20;98756.09;;;13.73;100.00
5753;BME280;2901;42.140;24.760;2022-11-20T03:27:46;98752.56;;;13.74;100.00
5753;BME280;2901;42.140;24.760;2022-11-20T03:30:11;98749.19;;;13.72;100.00
5753;BME280;2901;42.140;24.760;2022-11-20T03:32:37;98752.75;;;13.68;100.00
5753;BME280;2901;42.140;24.760;2022-11-20T03:35:02;98756.34;;;13.64;100.00
5753;BME280;2901;42.140;24.760;2022-11-20T03:37:27;98753.63;;;13.68;100.00
5753;BME280;2901;42.140;24.760;2022-11-20T03:39:53;98755.38;;;13.68;100.00
5753;BME280;2901;42.140;24.760;2022-11-20T03:42:18;98749.69;;;13.55;100.00
5753;BME280;2901;42.140;24.760;2022-11-20T03:45:02;98767.72;;;13.61;100.00
5753;BME280;2901;42.140;24.760;2022-11-20T03:47:28;98773.53;;;13.69;100.00
5753;BME280;2901;42.140;24.760;2022-11-20T03:49:53;98760.44;;;13.72;100.00
5753;BME280;2901;42.140;24.760;2022-11-20T03:52:19;98761.28;;;13.73;100.00
5753;BME280;2901;42.140;24.760;2022-11-20T03:54:44;98757.56;;;13.80;100.00
5753;BME280;2901;42.140;24.760;2022-11-20T03:57:09;98768.84;;;13.80;100.00
5753;BME280;2901;42.140;24.760;2022-11-20T03:59:35;98756.59;;;13.84;100.00
5753;BME280;2901;42.140;24.760;2022-11-20T04:02:00;98750.69;;;13.79;100.00
5753;BME280;2901;42.140;24.760;2022-11-20T04:04:25;98760.34;;;13.75;100.00
5753;BME280;2901;42.140;24.760;2022-11-20T04:06:51;98763.38;;;13.89;100.00
5753;BME280;2901;42.140;24.760;2022-11-20T04:09:16;98766.19;;;13.82;100.00
5753;BME280;2901;42.140;24.760;2022-11-20T04:11:41;98768.75;;;13.83;100.00
5753;BME280;2901;42.140;24.760;2022-11-20T04:14:13;98763.41;;;13.88;100.00
5753;BME280;2901;42.140;24.760;2022-11-20T04:16:38;98778.88;;;13.92;100.00
5753;BME280;2901;42.140;24.760;2022-11-20T04:19:06;98779.44;;;14.02;100.00
5753;BME280;2901;42.140;24.760;2022-11-20T04:21:34;98782.16;;;13.99;100.00
5753;BME280;2901;42.140;24.760;2022-11-20T04:24:00;98785.34;;;14.07;100.00
5753;BME280;2901;42.140;24.760;2022-11-20T04:26:27;98776.66;;;14.08;100.00
5753;BME280;2901;42.140;24.760;2022-11-20T04:28:53;98786.84;;;14.14;100.00
5753;BME280;2901;42.140;24.760;2022-11-20T04:31:21;98782.44;;;14.16;100.00
5753;BME280;2901;42.140;24.760;2022-11-20T04:33:47;98770.25;;;14.18;100.00
5753;BME280;2901;42.140;24.760;2022-11-20T04:36:20;98766.16;;;14.10;100.00
5753;BME280;2901;42.140;24.760;2022-11-20T04:38:46;98769.53;;;14.13;100.00
5753;BME280;2901;42.140;24.760;2022-11-20T04:41:18;98769.41;;;14.16;100.00
5753;BME280;2901;42.140;24.760;2022-11-20T04:43:50;98762.66;;;14.11;100.00
5753;BME280;2901;42.140;24.760;2022-11-20T04:46:17;98771.38;;;14.10;100.00
5753;BME280;2901;42.140;24.760;2022-11-20T04:48:43;98769.63;;;14.10;100.00
5753;BME280;2901;42.140;24.760;2022-11-20T04:51:08;98774.63;;;14.16;100.00
5753;BME280;2901;42.140;24.760;2022-11-20T04:53:34;98773.69;;;14.19;100.00
5753;BME280;2901;42.140;24.760;2022-11-20T04:56:07;98778.09;;;14.17;100.00
5753;BME280;2901;42.140;24.760;2022-11-20T04:58:33;98776.19;;;14.22;100.00
5753;BME280;2901;42.140;24.760;2022-11-20T05:01:03;98787.28;;;14.28;100.00
5753;BME280;2901;42.140;24.760;2022-11-20T05:03:29;98778.28;;;14.38;100.00
5753;BME280;2901;42.140;24.760;2022-11-20T05:05:55;98770.56;;;14.35;100.00
5753;BME280;2901;42.140;24.760;2022-11-20T05:08:20;98770.50;;;14.37;100.00
5753;BME280;2901;42.140;24.760;2022-11-20T05:10:46;98765.28;;;14.37;100.00
5753;BME280;2901;42.140;24.760;2022-11-20T05:13:11;98777.25;;;14.42;100.00
5753;BME280;2901;42.140;24.760;2022-11-20T05:15:36;98795.41;;;14.45;100.00
5753;BME280;2901;42.140;24.760;2022-11-20T05:18:02;98801.88;;;14.34;100.00
5753;BME280;2901;42.140;24.760;2022-11-20T05:20:27;98777.59;;;14.32;100.00
5753;BME280;2901;42.140;24.760;2022-11-20T05:22:56;98785.66;;;14.24;100.00
5753;BME280;2901;42.140;24.760;2022-11-20T05:25:21;98790.66;;;14.30;100.00
5753;BME280;2901;42.140;24.760;2022-11-20T05:27:47;98798.41;;;14.33;100.00
5753;BME280;2901;42.140;24.760;2022-11-20T05:30:13;98781.97;;;14.31;100.00
5753;BME280;2901;42.140;24.760;2022-11-20T05:32:38;98777.81;;;14.26;100.00
5753;BME280;2901;42.140;24.760;2022-11-20T05:35:04;98778.94;;;14.17;100.00
5753;BME280;2901;42.140;24.760;2022-11-20T05:37:29;98786.44;;;14.26;100.00
5753;BME280;2901;42.140;24.760;2022-11-20T05:39:55;98771.56;;;14.30;100.00
5753;BME280;2901;42.140;24.760;2022-11-20T05:42:20;98775.81;;;14.34;100.00
5753;BME280;2901;42.140;24.760;2022-11-20T05:45:01;98786.84;;;14.42;100.00
5753;BME280;2901;42.140;24.760;2022-11-20T05:47:30;98778.19;;;14.41;100.00
5753;BME280;2901;42.140;24.760;2022-11-20T05:49:56;98779.97;;;14.39;100.00
5753;BME280;2901;42.140;24.760;2022-11-20T05:52:21;98789.50;;;14.40;100.00
5753;BME280;2901;42.140;24.760;2022-11-20T05:54:47;98795.59;;;14.39;100.00
5753;BME280;2901;42.140;24.760;2022-11-20T05:57:12;98792.94;;;14.41;100.00
5753;BME280;2901;42.140;24.760;2022-11-20T05:59:37;98798.91;;;14.44;100.00
5753;BME280;2901;42.140;24.760;2022-11-20T06:02:03;98794.56;;;14.45;100.00
5753;BME280;2901;42.140;24.760;2022-11-20T06:04:28;98792.00;;;14.43;100.00
5753;BME280;2901;42.140;24.760;2022-11-20T06:06:54;98815.28;;;14.48;100.00
5753;BME280;2901;42.140;24.760;2022-11-20T06:09:19;98784.81;;;14.24;100.00
5753;BME280;2901;42.140;24.760;2022-11-20T06:11:45;98793.34;;;14.29;100.00
5753;BME280;2901;42.140;24.760;2022-11-20T06:14:10;98813.34;;;14.27;100.00
5753;BME280;2901;42.140;24.760;2022-11-20T06:16:35;98788.25;;;14.24;100.00
5753;BME280;2901;42.140;24.760;2022-11-20T06:19:01;98765.88;;;14.19;100.00
5753;BME280;2901;42.140;24.760;2022-11-20T06:21:27;98792.38;;;14.31;100.00
5753;BME280;2901;42.140;24.760;2022-11-20T06:23:52;98801.63;;;14.41;100.00
5753;BME280;2901;42.140;24.760;2022-11-20T06:26:23;98813.44;;;14.51;100.00
5753;BME280;2901;42.140;24.760;2022-11-20T06:28:50;98802.19;;;14.49;100.00
5753;BME280;2901;42.140;24.760;2022-11-20T06:31:17;98834.31;;;14.50;100.00
5753;BME280;2901;42.140;24.760;2022-11-20T06:33:44;98823.97;;;14.48;100.00
5753;BME280;2901;42.140;24.760;2022-11-20T06:36:11;98811.63;;;14.53;100.00
5753;BME280;2901;42.140;24.760;2022-11-20T06:38:37;98809.91;;;14.52;100.00
5753;BME280;2901;42.140;24.760;2022-11-20T06:41:04;98817.28;;;14.66;100.00
5753;BME280;2901;42.140;24.760;2022-11-20T06:43:30;98818.41;;;14.84;100.00
5753;BME280;2901;42.140;24.760;2022-11-20T06:45:56;98836.81;;;15.04;100.00
5753;BME280;2901;42.140;24.760;2022-11-20T06:48:23;98818.38;;;15.08;100.00
5753;BME280;2901;42.140;24.760;2022-11-20T06:50:49;98826.97;;;15.12;100.00
5753;BME280;2901;42.140;24.760;2022-11-20T06:53:14;98822.59;;;15.13;100.00
5753;BME280;2901;42.140;24.760;2022-11-20T06:55:44;98814.44;;;15.22;100.00
5753;BME280;2901;42.140;24.760;2022-11-20T06:58:10;98833.22;;;15.31;100.00
5753;BME280;2901;42.140;24.760;2022-11-20T07:00:36;98842.13;;;15.50;100.00
5753;BME280;2901;42.140;24.760;2022-11-20T07:03:05;98840.41;;;15.49;100.00
5753;BME280;2901;42.140;24.760;2022-11-20T07:05:32;98834.97;;;15.55;100.00
5753;BME280;2901;42.140;24.760;2022-11-20T07:07:57;98822.19;;;15.48;100.00
5753;BME280;2901;42.140;24.760;2022-11-20T07:10:23;98828.84;;;15.56;100.00
5753;BME280;2901;42.140;24.760;2022-11-20T07:12:50;98829.13;;;15.72;100.00
5753;BME280;2901;42.140;24.760;2022-11-20T07:15:16;98830.41;;;15.84;100.00
5753;BME280;2901;42.140;24.760;2022-11-20T07:17:42;98841.47;;;15.90;100.00
5753;BME280;2901;42.140;24.760;2022-11-20T07:20:07;98849.47;;;15.86;100.00
5753;BME280;2901;42.140;24.760;2022-11-20T07:22:33;98833.34;;;15.75;100.00
5753;BME280;2901;42.140;24.760;2022-11-20T07:24:58;98819.03;;;15.63;100.00
5753;BME280;2901;42.140;24.760;2022-11-20T07:27:24;98817.59;;;15.54;100.00
5753;BME280;2901;42.140;24.760;2022-11-20T07:29:49;98846.53;;;15.72;100.00
5753;BME280;2901;42.140;24.760;2022-11-20T07:32:14;98840.34;;;15.74;100.00
5753;BME280;2901;42.140;24.760;2022-11-20T07:34:40;98830.50;;;15.81;100.00
5753;BME280;2901;42.140;24.760;2022-11-20T07:37:05;98854.63;;;15.87;100.00
5753;BME280;2901;42.140;24.760;2022-11-20T07:39:30;98855.94;;;15.99;100.00
5753;BME280;2901;42.140;24.760;2022-11-20T07:41:56;98863.16;;;16.14;100.00
5753;BME280;2901;42.140;24.760;2022-11-20T07:44:21;98862.69;;;16.26;100.00
5753;BME280;2901;42.140;24.760;2022-11-20T07:46:46;98842.00;;;16.20;100.00
5753;BME280;2901;42.140;24.760;2022-11-20T07:49:12;98847.59;;;16.11;100.00
5753;BME280;2901;42.140;24.760;2022-11-20T07:51:37;98839.84;;;16.09;100.00
5753;BME280;2901;42.140;24.760;2022-11-20T07:54:03;98845.91;;;16.32;100.00
5753;BME280;2901;42.140;24.760;2022-11-20T07:56:28;98845.13;;;16.30;100.00
5753;BME280;2901;42.140;24.760;2022-11-20T07:58:54;98845.91;;;16.32;100.00
5753;BME280;2901;42.140;24.760;2022-11-20T08:01:19;98834.09;;;16.23;100.00
5753;BME280;2901;42.140;24.760;2022-11-20T08:03:44;98840.59;;;16.13;100.00
5753;BME280;2901;42.140;24.760;2022-11-20T08:06:10;98836.00;;;16.18;100.00
5753;BME280;2901;42.140;24.760;2022-11-20T08:08:35;98836.00;;;16.18;100.00
5753;BME280;2901;42.140;24.760;2022-11-20T08:11:01;98829.59;;;16.27;100.00
5753;BME280;2901;42.140;24.760;2022-11-20T08:13:44;98833.72;;;16.32;100.00
5753;BME280;2901;42.140;24.760;2022-11-20T08:16:28;98845.06;;;16.53;100.00
5753;BME280;2901;42.140;24.760;2022-11-20T08:18:54;98844.59;;;16.65;100.00
5753;BME280;2901;42.140;24.760;2022-11-20T08:21:20;98835.63;;;16.71;100.00
5753;BME280;2901;42.140;24.760;2022-11-20T08:23:45;98821.78;;;16.69;100.00
5753;BME280;2901;42.140;24.760;2022-11-20T08:26:11;98829.38;;;16.75;100.00
5753;BME280;2901;42.140;24.760;2022-11-20T08:28:36;98844.25;;;16.93;100.00
5753;BME280;2901;42.140;24.760;2022-11-20T08:31:02;98852.97;;;17.13;100.00
5753;BME280;2901;42.140;24.760;2022-11-20T08:33:28;98846.72;;;17.36;100.00
5753;BME280;2901;42.140;24.760;2022-11-20T08:35:59;98829.34;;;17.54;100.00
5753;BME280;2901;42.140;24.760;2022-11-20T08:38:25;98828.13;;;17.81;100.00
5753;BME280;2901;42.140;24.760;2022-11-20T08:40:50;98817.63;;;18.00;100.00
5753;BME280;2901;42.140;24.760;2022-11-20T08:43:34;98810.88;;;18.13;100.00
5753;BME280;2901;42.140;24.760;2022-11-20T08:45:59;98822.00;;;18.35;100.00
5753;BME280;2901;42.140;24.760;2022-11-20T08:48:24;98819.47;;;18.70;100.00
5753;BME280;2901;42.140;24.760;2022-11-20T08:50:50;98821.63;;;18.96;100.00
5753;BME280;2901;42.140;24.760;2022-11-20T08:53:15;98813.78;;;19.29;100.00
5753;BME280;2901;42.140;24.760;2022-11-20T08:55:40;98814.88;;;19.57;100.00
5753;BME280;2901;42.140;24.760;2022-11-20T08:58:06;98818.97;;;19.94;99.28
5753;BME280;2901;42.140;24.760;2022-11-20T09:00:33;98814.50;;;20.28;97.44
5753;BME280;2901;42.140;24.760;2022-11-20T09:02:59;98810.94;;;20.58;96.04
5753;BME280;2901;42.140;24.760;2022-11-20T09:05:26;98794.84;;;20.49;93.33
5753;BME280;2901;42.140;24.760;2022-11-20T09:07:51;98800.97;;;20.49;94.33
5753;BME280;2901;42.140;24.760;2022-11-20T09:10:16;98809.47;;;20.68;93.14
5753;BME280;2901;42.140;24.760;2022-11-20T09:12:42;98812.06;;;20.98;92.90
5753;BME280;2901;42.140;24.760;2022-11-20T09:15:07;98808.22;;;21.19;91.74
5753;BME280;2901;42.140;24.760;2022-11-20T09:17:33;98804.34;;;21.25;90.19
5753;BME280;2901;42.140;24.760;2022-11-20T09:19:58;98806.13;;;21.25;90.24
5753;BME280;2901;42.140;24.760;2022-11-20T09:22:23;98795.06;;;21.34;89.62
5753;BME280;2901;42.140;24.760;2022-11-20T09:24:49;98797.00;;;21.44;89.47
5753;BME280;2901;42.140;24.760;2022-11-20T09:27:14;98782.03;;;21.59;89.19
5753;BME280;2901;42.140;24.760;2022-11-20T09:29:40;98776.81;;;21.86;89.36
5753;BME280;2901;42.140;24.760;2022-11-20T09:32:05;98771.72;;;21.97;88.14
5753;BME280;2901;42.140;24.760;2022-11-20T09:34:31;98767.16;;;21.58;90.40
5753;BME280;2901;42.140;24.760;2022-11-20T09:36:56;98762.94;;;21.69;90.97
5753;BME280;2901;42.140;24.760;2022-11-20T09:39:22;98767.50;;;21.80;90.61
5753;BME280;2901;42.140;24.760;2022-11-20T09:47:08;98736.97;;;22.56;86.41
5753;BME280;2901;42.140;24.760;2022-11-20T09:50:18;98727.66;;;22.78;85.60
5753;BME280;2901;42.140;24.760;2022-11-20T09:55:38;98722.13;;;23.18;85.01
5753;BME280;2901;42.140;24.760;2022-11-20T09:58:14;98726.22;;;23.60;80.79
5753;BME280;2901;42.140;24.760;2022-11-20T10:00:41;98724.06;;;23.65;79.89
5753;BME280;2901;42.140;24.760;2022-11-20T10:03:30;98711.81;;;23.88;79.56
5753;BME280;2901;42.140;24.760;2022-11-20T10:06:02;98721.16;;;24.05;78.64
5753;BME280;2901;42.140;24.760;2022-11-20T10:08:39;98730.91;;;24.17;78.40
5753;BME280;2901;42.140;24.760;2022-11-20T10:14:00;98726.00;;;24.23;77.28
5753;BME280;2901;42.140;24.760;2022-11-20T10:17:03;98709.16;;;23.77;79.58
5753;BME280;2901;42.140;24.760;2022-11-20T10:22:35;98719.28;;;23.34;82.32
5753;BME280;2901;42.140;24.760;2022-11-20T10:25:14;98720.84;;;23.37;82.46
5753;BME280;2901;42.140;24.760;2022-11-20T10:30:44;98702.81;;;23.18;82.77
5753;BME280;2901;42.140;24.760;2022-11-20T10:33:19;98694.78;;;23.19;83.29
5753;BME280;2901;42.140;24.760;2022-11-20T10:35:55;98701.09;;;23.30;82.84
5753;BME280;2901;42.140;24.760;2022-11-20T10:38:43;98689.94;;;23.13;83.31
5753;BME280;2901;42.140;24.760;2022-11-20T10:41:18;98701.44;;;23.00;84.47
5753;BME280;2901;42.140;24.760;2022-11-20T10:44:02;98694.06;;;22.92;85.41
5753;BME280;2901;42.140;24.760;2022-11-20T10:46:34;98683.50;;;22.80;86.52
5753;BME280;2901;42.140;24.760;2022-11-20T10:49:05;98679.47;;;22.49;87.04
5753;BME280;2901;42.140;24.760;2022-11-20T10:51:59;98674.16;;;22.36;88.04
5753;BME280;2901;42.140;24.760;2022-11-20T11:00:11;98676.28;;;22.31;88.42
5753;BME280;2901;42.140;24.760;2022-11-20T11:02:47;98673.84;;;22.41;88.54
5753;BME280;2901;42.140;24.760;2022-11-20T11:07:57;98672.78;;;22.43;88.64
5753;BME280;2901;42.140;24.760;2022-11-20T11:10:30;98674.06;;;22.38;88.60
5753;BME280;2901;42.140;24.760;2022-11-20T11:12:58;98668.34;;;22.31;88.61
5753;BME280;2901;42.140;24.760;2022-11-20T11:15:28;98656.94;;;22.18;89.57
5753;BME280;2901;42.140;24.760;2022-11-20T11:17:53;98652.78;;;22.01;89.25
5753;BME280;2901;42.140;24.760;2022-11-20T11:20:23;98646.03;;;21.97;90.46
5753;BME280;2901;42.140;24.760;2022-11-20T11:22:54;98638.75;;;22.01;90.29
5753;BME280;2901;42.140;24.760;2022-11-20T11:25:30;98642.31;;;22.00;88.87
5753;BME280;2901;42.140;24.760;2022-11-20T11:28:04;98639.00;;;21.84;89.00
5753;BME280;2901;42.140;24.760;2022-11-20T11:30:40;98626.13;;;21.79;86.91
5753;BME280;2901;42.140;24.760;2022-11-20T11:33:10;98630.63;;;21.91;88.75
5753;BME280;2901;42.140;24.760;2022-11-20T11:35:47;98635.63;;;21.82;89.20
5753;BME280;2901;42.140;24.760;2022-11-20T11:38:16;98635.53;;;21.83;88.42
5753;BME280;2901;42.140;24.760;2022-11-20T11:40:43;98632.75;;;21.72;89.62
5753;BME280;2901;42.140;24.760;2022-11-20T11:43:38;98635.81;;;21.52;90.80
5753;BME280;2901;42.140;24.760;2022-11-20T11:54:24;98640.28;;;21.64;91.28
5753;BME280;2901;42.140;24.760;2022-11-20T11:56:51;98635.78;;;21.66;91.31
5753;BME280;2901;42.140;24.760;2022-11-20T11:59:26;98646.97;;;21.69;91.49
5753;BME280;2901;42.140;24.760;2022-11-20T12:01:59;98646.31;;;21.66;91.69
5753;BME280;2901;42.140;24.760;2022-11-20T12:07:47;98633.69;;;21.71;91.76
5753;BME280;2901;42.140;24.760;2022-11-20T12:16:03;98631.31;;;21.27;93.39
5753;BME280;2901;42.140;24.760;2022-11-20T12:18:29;98622.84;;;21.22;93.44
5753;BME280;2901;42.140;24.760;2022-11-20T12:38:43;98620.06;;;21.38;89.48
5753;BME280;2901;42.140;24.760;2022-11-20T12:44:24;98598.69;;;21.42;84.42
5753;BME280;2901;42.140;24.760;2022-11-20T12:53:28;98609.94;;;21.58;77.05
5753;BME280;2901;42.140;24.760;2022-11-20T12:56:20;98606.59;;;21.69;71.96
5753;BME280;2901;42.140;24.760;2022-11-20T13:01:58;98617.09;;;21.83;76.81
5753;BME280;2901;42.140;24.760;2022-11-20T13:04:48;98608.59;;;22.05;69.71
5753;BME280;2901;42.140;24.760;2022-11-20T13:07:17;98614.19;;;22.13;74.90
5753;BME280;2901;42.140;24.760;2022-11-20T13:09:47;98613.66;;;22.08;74.62
5753;BME280;2901;42.140;24.760;2022-11-20T13:14:46;98618.50;;;22.01;73.63
5753;BME280;2901;42.140;24.760;2022-11-20T13:17:36;98630.84;;;22.01;70.54
5753;BME280;2901;42.140;24.760;2022-11-20T13:20:06;98624.63;;;22.02;71.31
5753;BME280;2901;42.140;24.760;2022-11-20T13:22:51;98637.50;;;22.06;70.13
5753;BME280;2901;42.140;24.760;2022-11-20T13:27:52;98650.78;;;22.05;70.22
5753;BME280;2901;42.140;24.760;2022-11-20T13:30:21;98653.44;;;22.05;69.89
5753;BME280;2901;42.140;24.760;2022-11-20T13:35:36;98650.88;;;22.03;65.98
5753;BME280;2901;42.140;24.760;2022-11-20T13:38:11;98664.28;;;22.13;66.71
5753;BME280;2901;42.140;24.760;2022-11-20T13:40:58;98660.44;;;22.18;65.36
5753;BME280;2901;42.140;24.760;2022-11-20T13:43:42;98662.44;;;22.28;64.89
5753;BME280;2901;42.140;24.760;2022-11-20T13:46:09;98658.22;;;22.25;64.83
5753;BME280;2901;42.140;24.760;2022-11-20T13:48:40;98669.72;;;22.24;65.25
5753;BME280;2901;42.140;24.760;2022-11-20T13:51:08;98666.56;;;22.19;64.96
5753;BME280;2901;42.140;24.760;2022-11-20T14:01:55;98705.72;;;21.98;65.19
5753;BME280;2901;42.140;24.760;2022-11-20T14:04:27;98706.69;;;21.56;71.28
5753;BME280;2901;42.140;24.760;2022-11-20T14:06:56;98712.38;;;21.22;75.44
5753;BME280;2901;42.140;24.760;2022-11-20T14:09:32;98704.03;;;20.71;78.58
5753;BME280;2901;42.140;24.760;2022-11-20T14:11:59;98708.53;;;20.26;79.63
5753;BME280;2901;42.140;24.760;2022-11-20T14:14:26;98695.97;;;20.01;81.78
5753;BME280;2901;42.140;24.760;2022-11-20T14:16:53;98683.47;;;19.75;80.11
5753;BME280;2901;42.140;24.760;2022-11-20T14:19:29;98691.38;;;19.59;79.83
5753;BME280;2901;42.140;24.760;2022-11-20T14:22:21;98702.69;;;19.59;80.23
5753;BME280;2901;42.140;24.760;2022-11-20T14:27:44;98694.06;;;19.42;80.59
5753;BME280;2901;42.140;24.760;2022-11-20T14:30:15;98690.97;;;19.34;80.66
5753;BME280;2901;42.140;24.760;2022-11-20T14:32:42;98686.47;;;19.20;81.23
5753;BME280;2901;42.140;24.760;2022-11-20T14:35:10;98689.88;;;19.06;82.41
5753;BME280;2901;42.140;24.760;2022-11-20T14:37:39;98689.25;;;19.01;83.47
5753;BME280;2901;42.140;24.760;2022-11-20T14:40:23;98680.16;;;18.91;83.81
5753;BME280;2901;42.140;24.760;2022-11-20T14:42:49;98680.91;;;18.78;84.67
5753;BME280;2901;42.140;24.760;2022-11-20T14:45:14;98683.44;;;18.79;85.08
5753;BME280;2901;42.140;24.760;2022-11-20T14:47:40;98672.44;;;18.73;85.43
5753;BME280;2901;42.140;24.760;2022-11-20T14:50:13;98655.50;;;18.62;86.24